Time;durP1;ratioP1;P1;durP2;ratioP2;P2;SDS_P1;SDS_P2;PMS_P1;PMS_P2;Temp;Humidity;BMP_temperature;BMP_pressure;BME280_temperature;BME280_humidity;BME280_pressure;Samples;Min_cycle;Max_cycle;Signal;HPM_P1;HPM_P2
2021/03/24 00:01:26;;;;;;;13.77;12.37;;;;;;;;;;5036911;28;20474;-57
2021/03/24 00:04:25;;;;;;;17.30;12.27;;;;;;;;;;5037554;28;20029;-55
2021/03/24 00:07:17;;;;;;;18.80;12.83;;;;;;;;;;5055405;28;20103;-55
2021/03/24 00:09:43;;;;;;;20.43;12.60;;;;;;;;;;5051695;28;20470;-55
2021/03/24 00:12:17;;;;;;;21.13;13.03;;;;;;;;;;5055050;28;20055;-56
2021/03/24 00:15:04;;;;;;;18.13;13.23;;;;;;;;;;5054398;28;20021;-57
2021/03/24 00:18:21;;;;;;;18.03;13.23;;;;;;;;;;5055618;28;20104;-57
2021/03/24 00:21:34;;;;;;;16.93;11.60;;;;;;;;;;4957458;28;20157;-56
2021/03/24 00:24:19;;;;;;;18.37;12.57;;;;;;;;;;5048259;28;20394;-56
2021/03/24 00:26:48;;;;;;;16.00;14.20;;;;;;;;;;5055872;28;20088;-57
2021/03/24 00:29:43;;;;;;;17.57;13.37;;;;;;;;;;5055662;28;20033;-55
2021/03/24 00:32:10;;;;;;;19.00;12.33;;;;;;;;;;5055044;28;20025;-57
2021/03/24 00:35:21;;;;;;;;;;;;;;;;;;;;;
2021/03/24 00:37:52;;;;;;;;;;;;;;;;;;5035254;28;20109;-57
2021/03/24 00:40:24;;;;;;;16.27;13.00;;;;;;;;;;5034640;28;19912;-57
2021/03/24 00:42:56;;;;;;;14.93;13.30;;;;;;;;;;5035463;28;20108;-56
2021/03/24 00:45:32;;;;;;;16.53;12.37;;;;;;;;;;5034970;28;20399;-56
2021/03/24 00:48:28;;;;;;;19.10;14.03;;;;;;;;;;5035230;28;20117;-56
2021/03/24 00:51:02;;;;;;;15.70;13.10;;;;;;;;;;5007780;28;20084;-55
2021/03/24 00:53:39;;;;;;;17.40;14.30;;;;;;;;;;5035109;28;20017;-57
2021/03/24 00:56:27;;;;;;;23.57;13.27;;;;;;;;;;5017215;28;20064;-57
2021/03/24 01:05:02;;;;;;;21.47;13.87;;;;;;;;;;5032506;28;20030;-56
2021/03/24 01:07:48;;;;;;;15.73;14.00;;;;;;;;;;5019981;28;20073;-55
2021/03/24 01:10:36;;;;;;;15.33;13.10;;;;;;;;;;5038419;28;20029;-57
2021/03/24 01:13:02;;;;;;;22.83;14.27;;;;;;;;;;5038732;28;20017;-57
2021/03/24 01:15:46;;;;;;;20.97;12.70;;;;;;;;;;5020091;28;20033;-57
2021/03/24 01:19:10;;;;;;;17.23;13.07;;;;;;;;;;5020109;28;20045;-58
2021/03/24 01:21:39;;;;;;;16.57;13.87;;;;;;;;;;5032267;28;20032;-56
2021/03/24 01:24:23;;;;;;;22.83;13.83;;;;;;;;;;5037878;28;20029;-56
2021/03/24 01:26:58;;;;;;;16.23;13.13;;;;;;;;;;5014175;28;20037;-57
2021/03/24 01:29:34;;;;;;;17.47;14.03;;;;;;;;;;5019912;28;20045;-54
2021/03/24 01:32:32;;;;;;;22.23;13.03;;;;;;;;;;5037876;28;20112;-56
2021/03/24 01:35:21;;;;;;;26.90;14.50;;;;;;;;;;5038930;28;20053;-54
2021/03/24 01:40:47;;;;;;;14.13;12.63;;;;;;;;;;5047738;28;20041;-56
2021/03/24 01:43:22;;;;;;;18.80;14.60;;;;;;;;;;5050782;28;20033;-56
2021/03/24 01:46:17;;;;;;;14.27;12.23;;;;;;;;;;5058347;28;20048;-57
2021/03/24 01:49:05;;;;;;;20.23;12.17;;;;;;;;;;5058561;28;20025;-57
2021/03/24 01:51:58;;;;;;;23.03;12.80;;;;;;;;;;5058864;28;20396;-55
2021/03/24 01:54:35;;;;;;;17.40;12.33;;;;;;;;;;5058687;28;20104;-57
2021/03/24 01:57:30;;;;;;;18.13;13.53;;;;;;;;;;5057827;28;20025;-54
2021/03/24 02:00:37;;;;;;;16.37;12.77;;;;;;;;;;5029565;28;20045;-57
2021/03/24 02:03:10;;;;;;;18.37;13.23;;;;;;;;;;5057543;28;20040;-56
2021/03/24 02:05:57;;;;;;;17.00;12.63;;;;;;;;;;5058519;28;20069;-54
2021/03/24 02:09:01;;;;;;;14.10;12.60;;;;;;;;;;5058049;28;20025;-55
2021/03/24 02:15:07;;;;;;;16.57;13.27;;;;;;;;;;5049232;28;20037;-56
2021/03/24 02:17:47;;;;;;;;;;;;;;;;;;;;;
2021/03/24 02:20:36;;;;;;;19.65;14.25;;;;;;;;;;5058656;28;20116;-57
2021/03/24 02:23:21;;;;;;;15.40;13.03;;;;;;;;;;5057595;28;20025;-56
2021/03/24 02:26:24;;;;;;;;;;;;;;;;;;;;;
2021/03/24 02:29:28;;;;;;;16.10;12.77;;;;;;;;;;5057740;28;20088;-56
2021/03/24 02:32:36;;;;;;;17.47;12.40;;;;;;;;;;5041517;28;20547;-56
2021/03/24 02:35:27;;;;;;;12.33;11.03;;;;;;;;;;5000903;28;20059;-57
2021/03/24 02:38:07;;;;;;;13.30;11.48;;;;;;;;;;5057703;28;20382;-55
2021/03/24 02:43:49;;;;;;;15.37;12.87;;;;;;;;;;5003133;28;20458;-57
2021/03/24 02:49:58;;;;;;;13.10;11.23;;;;;;;;;;4995533;28;20034;-57
2021/03/24 02:52:42;;;;;;;20.03;13.57;;;;;;;;;;5057402;28;20029;-57
2021/03/24 02:55:59;;;;;;;17.27;13.17;;;;;;;;;;5056729;28;20029;-55
2021/03/24 02:58:50;;;;;;;19.40;13.97;;;;;;;;;;4976382;28;20081;-57
2021/03/24 03:01:24;;;;;;;16.10;11.50;;;;;;;;;;4975553;28;20031;-56
2021/03/24 03:06:59;;;;;;;15.93;12.47;;;;;;;;;;4962124;28;20493;-57
2021/03/24 03:09:44;;;;;;;17.57;11.70;;;;;;;;;;4959732;28;20038;-57
2021/03/24 03:12:34;;;;;;;;;;;;;;;;;;;;;
2021/03/24 03:18:37;;;;;;;15.73;10.93;;;;;;;;;;5056391;28;20040;-56
2021/03/24 03:21:43;;;;;;;13.90;11.30;;;;;;;;;;5022599;28;20038;-56
2021/03/24 03:27:20;;;;;;;;;;;;;;;;;;5033685;28;20036;-57
2021/03/24 03:33:10;;;;;;;;;;;;;;;;;;;;;
2021/03/24 03:36:12;;;;;;;16.33;12.90;;;;;;;;;;5051264;28;20115;-57
2021/03/24 03:41:59;;;;;;;16.02;12.75;;;;;;;;;;5036984;28;20035;-57
2021/03/24 03:45:13;;;;;;;16.63;12.50;;;;;;;;;;5034871;28;20026;-57
2021/03/24 03:47:47;;;;;;;18.47;12.13;;;;;;;;;;4956623;28;20114;-55
2021/03/24 03:50:32;;;;;;;16.67;11.63;;;;;;;;;;4939775;29;20041;-54
2021/03/24 03:56:40;;;;;;;;;;;;;;;;;;;;;
2021/03/24 04:02:06;;;;;;;16.13;12.73;;;;;;;;;;5034991;28;20036;-57
2021/03/24 04:07:51;;;;;;;23.63;14.30;;;;;;;;;;4982290;28;20400;-57
2021/03/24 04:13:42;;;;;;;15.80;12.50;;;;;;;;;;4994823;28;20050;-57
2021/03/24 04:16:24;;;;;;;18.47;13.53;;;;;;;;;;4991254;28;20393;-57
2021/03/24 04:19:29;;;;;;;16.93;13.57;;;;;;;;;;4994560;28;20113;-57
2021/03/24 04:22:11;;;;;;;19.23;13.87;;;;;;;;;;5005459;28;20054;-57
2021/03/24 04:24:44;;;;;;;17.00;12.30;;;;;;;;;;5014236;28;20037;-57
2021/03/24 04:27:24;;;;;;;21.30;13.57;;;;;;;;;;4997347;28;20092;-57
2021/03/24 04:29:55;;;;;;;19.08;12.60;;;;;;;;;;5014057;28;20069;-57
2021/03/24 04:32:21;;;;;;;;;;;;;;;;;;5013477;28;20416;-58
2021/03/24 04:35:04;;;;;;;17.33;12.47;;;;;;;;;;5020210;28;20354;-57
2021/03/24 04:41:06;;;;;;;20.67;14.50;;;;;;;;;;5058713;28;20374;-57
2021/03/24 04:46:50;;;;;;;14.35;12.63;;;;;;;;;;5058169;28;20040;-56
2021/03/24 04:49:24;;;;;;;17.97;13.00;;;;;;;;;;5058776;28;20042;-56
2021/03/24 04:56:00;;;;;;;;;;;;;;;;;;;;;
2021/03/24 04:58:34;;;;;;;23.87;12.40;;;;;;;;;;5053270;28;20036;-57
2021/03/24 05:01:06;;;;;;;;;;;;;;;;;;5044640;28;20025;-57
2021/03/24 05:03:41;;;;;;;15.57;10.60;;;;;;;;;;5039674;28;20410;-57
2021/03/24 05:06:18;;;;;;;15.97;12.20;;;;;;;;;;5056950;28;20036;-57
2021/03/24 05:08:50;;;;;;;17.40;12.03;;;;;;;;;;5039841;28;20037;-56
2021/03/24 05:11:35;;;;;;;;;;;;;;;;;;;;;
2021/03/24 05:14:15;;;;;;;;;;;;;;;;;;;;;
2021/03/24 05:16:55;;;;;;;16.57;12.27;;;;;;;;;;5057072;28;20037;-56
2021/03/24 05:22:59;;;;;;;13.83;11.70;;;;;;;;;;5056525;28;20037;-55
2021/03/24 05:25:44;;;;;;;15.60;13.33;;;;;;;;;;4956674;29;20042;-57
2021/03/24 05:28:30;;;;;;;14.77;11.87;;;;;;;;;;5054345;28;20041;-55
2021/03/24 05:31:22;;;;;;;17.80;14.27;;;;;;;;;;5025926;28;20116;-55
2021/03/24 05:34:17;;;;;;;17.03;12.33;;;;;;;;;;5056883;28;20078;-55
2021/03/24 05:36:52;;;;;;;21.10;12.13;;;;;;;;;;5051999;28;20098;-53
2021/03/24 05:39:41;;;;;;;17.20;12.57;;;;;;;;;;5038552;28;20136;-56
2021/03/24 05:42:13;;;;;;;14.43;11.83;;;;;;;;;;5056652;28;20490;-55
2021/03/24 05:45:05;;;;;;;16.00;12.83;;;;;;;;;;5056188;28;20055;-57
2021/03/24 05:47:49;;;;;;;17.50;13.37;;;;;;;;;;5056982;28;20101;-56
2021/03/24 05:50:34;;;;;;;17.10;14.33;;;;;;;;;;5053753;28;20043;-56
2021/03/24 05:53:07;;;;;;;15.97;14.23;;;;;;;;;;5055437;28;20437;-57
2021/03/24 05:55:54;;;;;;;19.90;14.03;;;;;;;;;;5038394;28;20029;-57
2021/03/24 05:58:36;;;;;;;18.97;13.20;;;;;;;;;;5038427;28;20033;-53
2021/03/24 06:01:32;;;;;;;17.70;13.73;;;;;;;;;;5057734;28;20427;-57
2021/03/24 06:07:49;;;;;;;19.83;15.10;;;;;;;;;;5056477;28;20494;-57
2021/03/24 06:10:40;;;;;;;24.13;13.93;;;;;;;;;;5041325;28;20100;-56
2021/03/24 06:13:38;;;;;;;;;;;;;;;;;;;;;
2021/03/24 06:19:30;;;;;;;17.57;12.17;;;;;;;;;;5045355;28;20048;-57
2021/03/24 06:25:22;;;;;;;16.83;13.10;;;;;;;;;;5056067;28;20490;-56
2021/03/24 06:28:21;;;;;;;16.80;13.57;;;;;;;;;;5054484;28;20037;-57
2021/03/24 06:31:21;;;;;;;17.63;13.33;;;;;;;;;;5055370;28;20120;-58
2021/03/24 06:34:13;;;;;;;23.25;16.05;;;;;;;;;;5034889;28;20025;-56
2021/03/24 06:43:16;;;;;;;24.57;16.80;;;;;;;;;;5030254;28;20541;-57
2021/03/24 06:49:09;;;;;;;17.43;13.00;;;;;;;;;;4994221;28;20472;-55
2021/03/24 06:51:47;;;;;;;15.53;13.13;;;;;;;;;;4993228;28;20038;-55
2021/03/24 06:54:41;;;;;;;20.20;13.97;;;;;;;;;;5040571;28;20033;-56
2021/03/24 06:57:29;;;;;;;21.90;13.40;;;;;;;;;;5055487;28;20133;-56
2021/03/24 07:00:25;;;;;;;23.73;15.47;;;;;;;;;;5054332;28;20045;-55
2021/03/24 07:03:27;;;;;;;18.47;14.57;;;;;;;;;;5055588;28;20025;-58
2021/03/24 07:06:16;;;;;;;18.30;14.27;;;;;;;;;;5056249;28;20029;-57
2021/03/24 07:09:00;;;;;;;19.47;14.83;;;;;;;;;;5055801;28;20029;-57
2021/03/24 07:11:54;;;;;;;18.17;15.60;;;;;;;;;;5055834;28;20021;-57
2021/03/24 07:17:35;;;;;;;;;;;;;;;;;;;;;
2021/03/24 07:20:11;;;;;;;21.20;15.27;;;;;;;;;;5055550;28;20029;-57
2021/03/24 07:22:56;;;;;;;21.70;15.47;;;;;;;;;;5053956;28;20025;-57
2021/03/24 07:25:53;;;;;;;23.50;14.50;;;;;;;;;;5054302;28;20021;-55
2021/03/24 07:28:51;;;;;;;17.57;13.87;;;;;;;;;;5035481;28;20060;-57
2021/03/24 07:31:52;;;;;;;18.47;15.27;;;;;;;;;;5035106;28;20044;-56
2021/03/24 07:34:28;;;;;;;21.27;15.30;;;;;;;;;;5054045;28;20029;-57
2021/03/24 07:37:13;;;;;;;18.07;16.17;;;;;;;;;;5054348;28;20049;-57
2021/03/24 07:40:18;;;;;;;15.63;14.00;;;;;;;;;;5054238;28;20360;-57
2021/03/24 07:43:09;;;;;;;20.83;14.67;;;;;;;;;;5054583;28;20504;-55
2021/03/24 07:49:02;;;;;;;21.37;15.37;;;;;;;;;;5025395;28;20036;-57
2021/03/24 07:58:04;;;;;;;19.33;14.90;;;;;;;;;;5025136;28;20496;-56
2021/03/24 08:00:44;;;;;;;24.67;16.43;;;;;;;;;;5036163;28;20029;-57
2021/03/24 08:03:30;;;;;;;26.50;14.63;;;;;;;;;;5053593;28;20078;-58
2021/03/24 08:06:28;;;;;;;16.50;14.07;;;;;;;;;;5035518;28;20071;-54
2021/03/24 08:09:21;;;;;;;23.30;15.40;;;;;;;;;;5053627;28;20100;-57
2021/03/24 08:11:57;;;;;;;20.67;14.60;;;;;;;;;;5036236;28;20490;-56
2021/03/24 08:14:52;;;;;;;;;;;;;;;;;;;;;
2021/03/24 08:17:42;;;;;;;;;;;;;;;;;;;;;
2021/03/24 08:20:20;;;;;;;16.80;12.75;;;;;;;;;;5050786;28;20044;-58
2021/03/24 08:23:05;;;;;;;19.03;13.43;;;;;;;;;;5035845;28;20029;-57
2021/03/24 08:25:55;;;;;;;23.10;13.00;;;;;;;;;;5037119;28;20490;-59
2021/03/24 08:28:58;;;;;;;17.83;13.37;;;;;;;;;;5036285;28;20040;-55
2021/03/24 08:32:16;;;;;;;23.43;15.03;;;;;;;;;;5035657;28;20037;-58
2021/03/24 08:34:41;;;;;;;;;;;;;;;;;;5050884;28;20098;-58
2021/03/24 08:40:41;;;;;;;25.13;13.77;;;;;;;;;;5054109;28;20048;-57
2021/03/24 08:43:23;;;;;;;16.02;12.05;;;;;;;;;;5036059;28;20091;-57
2021/03/24 08:46:13;;;;;;;22.88;14.13;;;;;;;;;;5054337;28;20021;-58
2021/03/24 08:48:57;;;;;;;19.80;14.07;;;;;;;;;;5015319;28;20356;-58
2021/03/24 08:51:59;;;;;;;;;;;;;;;;;;;;;
2021/03/24 08:54:47;;;;;;;18.83;13.40;;;;;;;;;;5052467;28;20025;-58
2021/03/24 08:57:49;;;;;;;19.20;14.77;;;;;;;;;;5053410;28;20029;-57
2021/03/24 09:00:23;;;;;;;19.33;15.32;;;;;;;;;;5053896;28;20045;-58
2021/03/24 09:03:17;;;;;;;20.58;13.98;;;;;;;;;;5053846;28;20013;-57
2021/03/24 09:06:02;;;;;;;18.00;13.73;;;;;;;;;;5035566;28;20037;-57
2021/03/24 09:08:58;;;;;;;20.77;13.70;;;;;;;;;;5035332;28;20032;-58
2021/03/24 09:17:48;;;;;;;;;;;;;;;;;;5053290;28;20116;-59
2021/03/24 09:20:39;;;;;;;16.98;10.75;;;;;;;;;;5032783;28;19939;-58
2021/03/24 09:23:26;;;;;;;14.60;12.40;;;;;;;;;;5054368;28;20092;-58
2021/03/24 09:26:18;;;;;;;15.80;12.10;;;;;;;;;;5056490;28;20025;-56
2021/03/24 09:29:12;;;;;;;11.75;10.55;;;;;;;;;;5057217;28;20044;-54
2021/03/24 09:32:03;;;;;;;16.35;11.55;;;;;;;;;;5056828;28;20119;-56
2021/03/24 09:34:37;;;;;;;13.27;11.25;;;;;;;;;;5056265;28;20104;-56
2021/03/24 09:40:39;;;;;;;15.07;11.45;;;;;;;;;;4975666;28;20527;-57
2021/03/24 09:43:33;;;;;;;15.65;10.85;;;;;;;;;;5038062;28;20025;-55
2021/03/24 09:46:18;;;;;;;15.90;12.55;;;;;;;;;;5056772;28;20025;-57
2021/03/24 09:49:16;;;;;;;18.25;11.85;;;;;;;;;;5056508;28;20471;-56
2021/03/24 09:52:18;;;;;;;15.82;12.70;;;;;;;;;;5040426;28;20363;-57
2021/03/24 09:55:19;;;;;;;16.50;10.57;;;;;;;;;;4973579;28;20039;-55
2021/03/24 09:58:09;;;;;;;13.30;11.13;;;;;;;;;;4956298;29;20071;-55
2021/03/24 10:00:56;;;;;;;16.75;11.13;;;;;;;;;;4987430;28;20086;-57
2021/03/24 10:03:50;;;;;;;19.98;11.93;;;;;;;;;;5056357;28;20017;-57
2021/03/24 10:09:34;;;;;;;;;;;;;;;;;;;;;
2021/03/24 10:12:07;;;;;;;13.27;11.38;;;;;;;;;;5056759;28;20037;-55
2021/03/24 10:14:44;;;;;;;16.25;11.10;;;;;;;;;;5055999;28;20064;-56
2021/03/24 10:17:26;;;;;;;17.05;11.27;;;;;;;;;;5038707;28;20490;-57
2021/03/24 10:20:29;;;;;;;;;;;;;;;;;;;;;
2021/03/24 10:23:11;;;;;;;13.45;9.75;;;;;;;;;;5017080;28;20366;-56
2021/03/24 10:25:54;;;;;;;10.55;8.52;;;;;;;;;;5055609;28;20020;-57
2021/03/24 10:28:33;;;;;;;13.00;10.23;;;;;;;;;;5055802;28;20463;-56
2021/03/24 10:31:10;;;;;;;15.32;9.63;;;;;;;;;;5055662;28;20064;-55
2021/03/24 10:33:46;;;;;;;13.95;10.05;;;;;;;;;;5053907;28;20428;-57
2021/03/24 10:36:56;;;;;;;16.30;11.50;;;;;;;;;;5037142;28;20056;-54
2021/03/24 10:39:58;;;;;;;17.38;10.13;;;;;;;;;;5017367;28;20053;-55
2021/03/24 10:42:43;;;;;;;12.95;9.20;;;;;;;;;;5054595;28;20044;-55
2021/03/24 10:45:30;;;;;;;12.25;9.55;;;;;;;;;;5055665;28;20474;-56
2021/03/24 10:48:22;;;;;;;12.07;6.97;;;;;;;;;;5054860;28;20100;-57
2021/03/24 10:51:18;;;;;;;12.50;9.45;;;;;;;;;;5055322;28;20428;-56
2021/03/24 10:53:44;;;;;;;13.10;9.05;;;;;;;;;;5045134;28;20048;-57
2021/03/24 10:56:26;;;;;;;9.02;8.10;;;;;;;;;;5036859;28;20028;-57
2021/03/24 10:59:13;;;;;;;10.93;8.77;;;;;;;;;;5037023;28;20374;-57
2021/03/24 11:02:03;;;;;;;10.55;8.05;;;;;;;;;;5037446;28;20033;-57
2021/03/24 11:04:35;;;;;;;15.05;8.38;;;;;;;;;;5055710;28;20032;-58
2021/03/24 11:07:19;;;;;;;9.88;7.95;;;;;;;;;;5055747;28;20368;-57
2021/03/24 11:09:49;;;;;;;9.35;6.95;;;;;;;;;;5054895;28;20033;-57
2021/03/24 11:12:22;;;;;;;9.18;8.27;;;;;;;;;;5054478;28;20086;-57
2021/03/24 11:15:08;;;;;;;12.90;8.20;;;;;;;;;;5036593;28;20048;-57
2021/03/24 11:17:43;;;;;;;10.77;7.45;;;;;;;;;;5054885;28;20523;-57
2021/03/24 11:20:38;;;;;;;10.15;7.78;;;;;;;;;;5054270;28;20053;-56
2021/03/24 11:23:09;;;;;;;9.85;8.38;;;;;;;;;;5035244;28;20064;-56
2021/03/24 11:26:11;;;;;;;10.50;8.20;;;;;;;;;;5052293;28;20059;-57
2021/03/24 11:28:39;;;;;;;13.27;8.23;;;;;;;;;;4971619;28;20032;-54
2021/03/24 11:31:40;;;;;;;15.77;7.65;;;;;;;;;;5054911;28;20074;-57
2021/03/24 11:34:14;;;;;;;11.00;7.55;;;;;;;;;;5019156;28;20029;-55
2021/03/24 11:36:47;;;;;;;12.05;7.70;;;;;;;;;;5037772;28;20397;-57
2021/03/24 11:39:23;;;;;;;15.45;8.55;;;;;;;;;;5054434;28;20219;-57
2021/03/24 11:41:50;;;;;;;12.70;7.75;;;;;;;;;;5054263;28;20033;-57
2021/03/24 11:44:30;;;;;;;10.80;8.25;;;;;;;;;;5053940;28;20037;-57
2021/03/24 11:47:06;;;;;;;9.55;7.32;;;;;;;;;;5053548;28;20037;-56
2021/03/24 11:49:51;;;;;;;8.43;7.47;;;;;;;;;;5036136;28;20033;-57
2021/03/24 11:52:25;;;;;;;8.50;7.47;;;;;;;;;;5054413;28;20459;-57
2021/03/24 11:55:10;;;;;;;11.95;8.32;;;;;;;;;;5054015;28;20049;-57
2021/03/24 11:58:14;;;;;;;9.30;7.13;;;;;;;;;;5036029;28;20032;-58
2021/03/24 12:01:02;;;;;;;12.93;7.85;;;;;;;;;;5036880;28;20112;-57
2021/03/24 12:03:43;;;;;;;8.65;7.75;;;;;;;;;;5054446;28;20108;-57
2021/03/24 12:09:03;;;;;;;14.15;7.95;;;;;;;;;;5053799;28;20297;-58
2021/03/24 12:11:34;;;;;;;9.93;7.60;;;;;;;;;;5054267;28;20033;-57
2021/03/24 12:14:15;;;;;;;9.65;8.65;;;;;;;;;;5053801;28;20356;-56
2021/03/24 12:16:50;;;;;;;10.48;7.25;;;;;;;;;;5035823;28;20421;-58
2021/03/24 12:19:35;;;;;;;12.70;10.23;;;;;;;;;;5053897;28;20139;-57
2021/03/24 12:22:15;;;;;;;15.23;9.27;;;;;;;;;;5053255;28;20432;-55
2021/03/24 12:24:44;;;;;;;13.63;10.05;;;;;;;;;;5054481;28;20359;-58
2021/03/24 12:27:15;;;;;;;16.30;10.38;;;;;;;;;;5053693;28;20037;-57
2021/03/24 12:29:45;;;;;;;16.48;9.07;;;;;;;;;;5053076;28;20059;-58
2021/03/24 12:32:44;;;;;;;10.88;9.70;;;;;;;;;;5053923;28;20025;-57
2021/03/24 12:35:27;;;;;;;12.68;9.10;;;;;;;;;;5038371;28;20029;-57
2021/03/24 12:38:00;;;;;;;12.20;9.00;;;;;;;;;;5052989;28;20048;-57
2021/03/24 12:40:40;;;;;;;10.82;8.65;;;;;;;;;;5054037;28;20412;-56
2021/03/24 12:43:26;;;;;;;18.23;9.73;;;;;;;;;;5053080;28;20103;-56
2021/03/24 12:46:06;;;;;;;15.40;9.82;;;;;;;;;;5051937;28;20029;-57
2021/03/24 12:48:40;;;;;;;10.88;9.48;;;;;;;;;;5036310;28;20459;-57
2021/03/24 12:51:13;;;;;;;14.05;9.82;;;;;;;;;;5053406;28;20033;-57
2021/03/24 12:53:45;;;;;;;11.07;9.02;;;;;;;;;;5052151;28;20041;-57
2021/03/24 12:56:31;;;;;;;13.27;10.52;;;;;;;;;;5053908;28;20079;-55
2021/03/24 12:59:00;;;;;;;14.52;10.18;;;;;;;;;;5055579;28;20036;-56
2021/03/24 13:01:56;;;;;;;16.90;9.60;;;;;;;;;;5057629;28;20060;-57
2021/03/24 13:04:40;;;;;;;12.85;10.10;;;;;;;;;;5039609;28;20032;-57
2021/03/24 13:07:25;;;;;;;14.05;10.32;;;;;;;;;;5039479;28;20033;-57
2021/03/24 13:10:11;;;;;;;12.23;10.30;;;;;;;;;;5056907;28;20033;-57
2021/03/24 13:12:51;;;;;;;13.95;10.55;;;;;;;;;;5055643;28;20037;-57
2021/03/24 13:15:33;;;;;;;13.70;9.75;;;;;;;;;;5056912;28;20029;-57
2021/03/24 13:18:21;;;;;;;14.23;10.18;;;;;;;;;;5055754;28;20040;-58
2021/03/24 13:21:01;;;;;;;14.43;9.60;;;;;;;;;;5056735;28;20021;-57
2021/03/24 13:23:34;;;;;;;13.25;10.95;;;;;;;;;;5039162;28;20021;-57
2021/03/24 13:26:03;;;;;;;14.10;12.32;;;;;;;;;;5057038;28;20021;-57
2021/03/24 13:28:39;;;;;;;13.80;10.38;;;;;;;;;;5039375;28;20025;-57
2021/03/24 13:31:26;;;;;;;15.25;10.00;;;;;;;;;;5056979;28;20055;-57
2021/03/24 13:34:11;;;;;;;11.88;10.13;;;;;;;;;;5056717;28;20512;-57
2021/03/24 13:36:45;;;;;;;11.05;9.50;;;;;;;;;;5038543;28;20055;-57
2021/03/24 13:39:17;;;;;;;16.13;9.93;;;;;;;;;;5038068;28;20050;-57
2021/03/24 13:41:51;;;;;;;13.93;10.35;;;;;;;;;;5056365;28;20033;-56
2021/03/24 13:44:28;;;;;;;12.95;8.95;;;;;;;;;;5056072;28;20025;-57
2021/03/24 13:47:01;;;;;;;12.75;10.20;;;;;;;;;;5056096;28;20028;-58
2021/03/24 13:49:45;;;;;;;11.65;9.50;;;;;;;;;;5056505;28;20356;-57
2021/03/24 13:52:36;;;;;;;16.27;10.65;;;;;;;;;;5056649;28;20059;-58
2021/03/24 13:55:23;;;;;;;15.75;10.25;;;;;;;;;;5038662;28;20375;-57
2021/03/24 13:57:54;;;;;;;14.90;10.75;;;;;;;;;;5037836;28;20028;-57
2021/03/24 14:00:26;;;;;;;;;;;;;;;;;;5056645;28;20104;-57
2021/03/24 14:03:11;;;;;;;11.23;8.48;;;;;;;;;;5056515;28;19909;-58
2021/03/24 14:05:41;;;;;;;19.38;10.68;;;;;;;;;;5056068;28;20017;-57
2021/03/24 14:08:26;;;;;;;13.50;9.07;;;;;;;;;;5056045;28;20033;-56
2021/03/24 14:11:12;;;;;;;12.68;9.70;;;;;;;;;;5054697;28;20256;-57
2021/03/24 14:14:02;;;;;;;11.82;8.95;;;;;;;;;;5038263;28;20482;-57
2021/03/24 14:16:36;;;;;;;12.95;9.70;;;;;;;;;;5037704;28;20083;-56
2021/03/24 14:19:24;;;;;;;15.63;10.52;;;;;;;;;;5056100;28;20028;-57
2021/03/24 14:21:57;;;;;;;12.48;9.75;;;;;;;;;;5037571;28;20032;-57
2021/03/24 14:24:44;;;;;;;12.40;10.65;;;;;;;;;;5055395;28;20129;-57
2021/03/24 14:27:46;;;;;;;12.73;9.88;;;;;;;;;;5037530;28;20475;-58
2021/03/24 14:30:44;;;;;;;11.73;9.07;;;;;;;;;;4955462;29;20474;-57
2021/03/24 14:33:29;;;;;;;13.07;10.93;;;;;;;;;;5055845;28;20025;-57
2021/03/24 14:36:03;;;;;;;12.88;9.80;;;;;;;;;;5055396;28;20112;-57
2021/03/24 14:38:48;;;;;;;15.38;10.32;;;;;;;;;;5054985;28;20045;-57
2021/03/24 14:41:33;;;;;;;14.18;9.60;;;;;;;;;;5055333;28;20032;-57
2021/03/24 18:54:22;;;;;;;9.80;7.68;;;;;;;;;;5054788;28;20106;-57
2021/03/24 18:56:50;;;;;;;14.40;9.95;;;;;;;;;;5053897;28;20041;-56
2021/03/24 18:59:36;;;;;;;12.23;9.25;;;;;;;;;;5054630;28;20029;-56
2021/03/24 19:02:37;;;;;;;16.25;9.05;;;;;;;;;;5054966;28;20043;-57
2021/03/24 19:05:35;;;;;;;15.95;10.10;;;;;;;;;;5012382;28;20036;-57
2021/03/24 19:08:14;;;;;;;12.82;9.32;;;;;;;;;;5053483;28;20069;-54
2021/03/24 19:10:53;;;;;;;16.92;8.90;;;;;;;;;;5055526;28;20021;-57
2021/03/24 19:13:31;;;;;;;14.60;10.32;;;;;;;;;;5054634;28;20028;-56
2021/03/24 19:16:10;;;;;;;18.83;9.60;;;;;;;;;;5055313;28;20076;-57
2021/03/24 19:18:46;;;;;;;15.48;10.25;;;;;;;;;;5054432;28;20391;-56
2021/03/24 19:21:20;;;;;;;14.93;9.98;;;;;;;;;;5054625;28;20031;-57
2021/03/24 19:24:02;;;;;;;18.15;10.25;;;;;;;;;;5054929;28;20032;-58
2021/03/24 19:26:28;;;;;;;14.40;9.63;;;;;;;;;;5036372;28;20029;-57
2021/03/24 19:29:16;;;;;;;15.35;11.23;;;;;;;;;;5019958;28;20111;-57
2021/03/24 19:31:48;;;;;;;18.65;12.30;;;;;;;;;;5054467;28;20033;-57
2021/03/24 19:34:21;;;;;;;14.32;11.60;;;;;;;;;;5054150;28;20068;-58
2021/03/24 19:37:02;;;;;;;17.52;11.50;;;;;;;;;;5054556;28;20021;-57
2021/03/24 19:39:31;;;;;;;17.67;11.27;;;;;;;;;;5053874;28;20029;-57
2021/03/24 19:42:17;;;;;;;14.50;10.55;;;;;;;;;;5054501;28;20033;-57
2021/03/24 19:44:46;;;;;;;13.75;10.07;;;;;;;;;;5053955;28;20047;-57
2021/03/24 19:47:22;;;;;;;16.23;11.50;;;;;;;;;;5053838;28;20021;-55
2021/03/24 19:50:25;;;;;;;14.57;11.63;;;;;;;;;;5053862;28;20386;-55
2021/03/24 19:52:51;;;;;;;17.85;10.40;;;;;;;;;;5011361;28;20471;-57
2021/03/24 19:55:20;;;;;;;18.23;11.02;;;;;;;;;;5053963;28;20036;-57
2021/03/24 19:57:54;;;;;;;12.65;10.30;;;;;;;;;;5054094;28;20036;-58
2021/03/24 20:00:45;;;;;;;14.85;10.30;;;;;;;;;;5035953;28;20033;-55
2021/03/24 20:03:17;;;;;;;14.15;11.95;;;;;;;;;;5054172;28;20111;-57
2021/03/24 20:06:09;;;;;;;14.85;10.13;;;;;;;;;;5053893;28;20028;-57
2021/03/24 20:08:48;;;;;;;9.70;8.25;;;;;;;;;;5005213;28;20093;-57
2021/03/24 20:11:17;;;;;;;13.73;10.88;;;;;;;;;;5053762;28;20116;-55
2021/03/24 20:13:50;;;;;;;10.52;8.20;;;;;;;;;;5053950;28;20059;-56
2021/03/24 20:16:31;;;;;;;11.55;8.55;;;;;;;;;;5037495;28;20028;-57
2021/03/24 20:19:05;;;;;;;12.95;10.07;;;;;;;;;;5054587;28;20095;-56
2021/03/24 20:21:33;;;;;;;15.38;10.50;;;;;;;;;;5054144;28;20092;-57
2021/03/24 20:24:04;;;;;;;14.18;10.10;;;;;;;;;;5053464;28;20463;-55
2021/03/24 20:26:48;;;;;;;13.85;9.48;;;;;;;;;;5050713;28;20033;-56
2021/03/24 20:29:16;;;;;;;16.08;9.85;;;;;;;;;;5035826;28;20175;-56
2021/03/24 20:31:49;;;;;;;14.02;9.57;;;;;;;;;;5035482;28;20033;-57
2021/03/24 20:34:18;;;;;;;13.35;9.85;;;;;;;;;;5035490;28;20451;-57
2021/03/24 20:36:49;;;;;;;13.82;9.88;;;;;;;;;;5053199;28;20029;-57
2021/03/24 20:39:18;;;;;;;15.48;10.18;;;;;;;;;;5054407;28;20033;-55
2021/03/24 20:41:49;;;;;;;17.33;11.00;;;;;;;;;;5053869;28;20029;-56
2021/03/24 20:44:18;;;;;;;12.27;10.40;;;;;;;;;;5053849;28;20458;-57
2021/03/24 20:46:56;;;;;;;15.20;10.27;;;;;;;;;;5052597;28;20418;-57
2021/03/24 20:49:34;;;;;;;18.48;9.52;;;;;;;;;;5053649;28;20033;-57
2021/03/24 20:52:10;;;;;;;15.25;8.23;;;;;;;;;;5033790;28;20025;-57
2021/03/24 20:54:42;;;;;;;11.10;8.45;;;;;;;;;;5054306;28;20025;-57
2021/03/24 20:57:30;;;;;;;14.07;9.15;;;;;;;;;;5053696;28;20056;-57
2021/03/24 20:59:59;;;;;;;13.40;8.55;;;;;;;;;;5053295;28;20033;-55
2021/03/24 21:02:34;;;;;;;15.13;9.68;;;;;;;;;;5053358;28;20467;-57
2021/03/24 21:05:06;;;;;;;15.25;9.55;;;;;;;;;;5053918;28;20029;-55
2021/03/24 21:10:44;;;;;;;16.95;9.30;;;;;;;;;;5045271;28;20064;-55
2021/03/24 21:13:16;;;;;;;18.02;9.45;;;;;;;;;;5052811;28;20488;-57
2021/03/24 21:15:58;;;;;;;13.90;9.48;;;;;;;;;;5053816;28;20120;-56
2021/03/24 21:18:50;;;;;;;11.15;8.85;;;;;;;;;;5035997;28;20358;-57
2021/03/24 21:21:22;;;;;;;13.00;9.82;;;;;;;;;;5053288;28;20037;-57
2021/03/24 21:23:51;;;;;;;17.10;9.38;;;;;;;;;;5054788;28;20040;-57
2021/03/24 21:26:25;;;;;;;16.35;9.60;;;;;;;;;;5038855;28;20036;-57
2021/03/24 21:29:22;;;;;;;15.90;9.23;;;;;;;;;;5039159;28;20482;-57
2021/03/24 21:31:51;;;;;;;14.57;8.95;;;;;;;;;;5056958;28;20398;-57
2021/03/24 21:34:22;;;;;;;17.60;10.95;;;;;;;;;;5056592;28;20119;-57
2021/03/24 21:36:57;;;;;;;17.40;11.95;;;;;;;;;;5056432;28;20045;-56
2021/03/24 21:39:35;;;;;;;15.82;10.10;;;;;;;;;;5056673;28;20037;-57
2021/03/24 21:42:10;;;;;;;18.15;10.40;;;;;;;;;;5057288;28;20051;-57
2021/03/24 21:44:46;;;;;;;13.52;10.38;;;;;;;;;;5056537;28;20368;-57
2021/03/24 21:47:18;;;;;;;13.30;11.63;;;;;;;;;;5056388;28;20025;-58
2021/03/24 21:49:51;;;;;;;16.77;11.98;;;;;;;;;;5056323;28;20083;-56
2021/03/24 21:52:29;;;;;;;15.90;10.82;;;;;;;;;;5022500;28;20187;-56
2021/03/24 21:55:02;;;;;;;16.58;12.18;;;;;;;;;;5056396;28;20021;-56
2021/03/24 21:57:42;;;;;;;16.05;11.05;;;;;;;;;;5056941;28;20067;-57
2021/03/24 22:00:30;;;;;;;17.65;11.90;;;;;;;;;;5056075;28;20414;-57
2021/03/24 22:03:35;;;;;;;16.38;12.65;;;;;;;;;;5056765;28;20076;-58
2021/03/24 22:06:10;;;;;;;17.50;12.80;;;;;;;;;;4975071;28;20034;-57
2021/03/24 22:09:02;;;;;;;24.40;12.82;;;;;;;;;;4975448;28;20062;-56
2021/03/24 22:11:40;;;;;;;18.40;12.07;;;;;;;;;;5032985;28;20108;-58
2021/03/24 22:14:28;;;;;;;18.70;13.48;;;;;;;;;;5039616;28;20024;-58
2021/03/24 22:17:00;;;;;;;23.60;12.63;;;;;;;;;;5056076;28;20025;-57